Terminal Aerodrome Forecast
Issued by NWS North Platte, NE

Home | Current Version | Previous Version | Text Only | Print | Product List | Glossary On
Versions: 1 2 3 4 5 6 7 8 9 10 11 12 13 14 15 16 17 18 19 20 21
580
FTUS43 KLBF 301137 CCA
TAFVTN
TAF COR
KVTN 301137Z 3012/3112 12011G18KT P6SM OVC015
     FM301500 17010KT P6SM SCT020 BKN200
     FM301800 16012G18KT P6SM BKN040
     FM310500 17008KT P6SM VCTS BKN060CB OVC150
     FM310700 17008KT P6SM BKN150=

USA.gov is the U.S. government's official web portal to all federal, state and local government web resources and services.